Terminal Aerodrome Forecast
Issued by NWS

Home | Current Version | Previous Version | Text Only | Print | Product List | Glossary On
Versions: 1 2 3 4 5 6 7 8 9 10 11 12 13 14 15 16 17 18 19
000
FTUS46 KLOX 270500
TAFPRB
TAF
KPRB 270539Z 2706/2806 VRB03KT P6SM SCT250
     FM271200 VRB03KT 1/4SM FG VV001
     FM271800 VRB03KT P6SM FEW004 BKN080
     FM272100 31012KT P6SM BKN060
     FM280400 VRB03KT P6SM BKN060=

USA.gov is the U.S. government's official web portal to all federal, state and local government web resources and services.